sensor_id;sensor_type;location;lat;lon;timestamp;pressure;altitude;pressure_sealevel;temperature;humidity
48204;BME280;33994;50.998;5.864;2022-12-18T00:00:53;102294.09;;;-6.04;84.42
48204;BME280;33994;50.998;5.864;2022-12-18T00:03:59;102293.22;;;-6.05;84.13
48204;BME280;33994;50.998;5.864;2022-12-18T00:07:03;102286.34;;;-6.06;84.35
48204;BME280;33994;50.998;5.864;2022-12-18T00:10:07;102284.34;;;-6.10;84.11
48204;BME280;33994;50.998;5.864;2022-12-18T00:13:10;102275.59;;;-6.13;84.37
48204;BME280;33994;50.998;5.864;2022-12-18T00:16:15;102284.91;;;-6.14;84.29
48204;BME280;33994;50.998;5.864;2022-12-18T00:19:19;102302.59;;;-6.16;84.09
48204;BME280;33994;50.998;5.864;2022-12-18T00:22:22;102309.34;;;-6.16;84.36
48204;BME280;33994;50.998;5.864;2022-12-18T00:25:25;102303.13;;;-6.20;84.37
48204;BME280;33994;50.998;5.864;2022-12-18T00:28:28;102299.84;;;-6.19;83.69
48204;BME280;33994;50.998;5.864;2022-12-18T00:31:32;102292.84;;;-6.21;83.67
48204;BME280;33994;50.998;5.864;2022-12-18T00:34:36;102281.00;;;-6.21;83.87
48204;BME280;33994;50.998;5.864;2022-12-18T00:37:39;102280.22;;;-6.20;83.61
48204;BME280;33994;50.998;5.864;2022-12-18T00:40:43;102279.47;;;-6.19;83.75
48204;BME280;33994;50.998;5.864;2022-12-18T00:43:46;102282.75;;;-6.20;83.31
48204;BME280;33994;50.998;5.864;2022-12-18T00:46:49;102277.66;;;-6.20;83.73
48204;BME280;33994;50.998;5.864;2022-12-18T00:49:54;102271.25;;;-6.26;83.43
48204;BME280;33994;50.998;5.864;2022-12-18T00:52:57;102272.88;;;-6.27;83.15
48204;BME280;33994;50.998;5.864;2022-12-18T00:56:00;102277.22;;;-6.26;83.33
48204;BME280;33994;50.998;5.864;2022-12-18T00:59:03;102275.31;;;-6.28;83.54
48204;BME280;33994;50.998;5.864;2022-12-18T01:02:07;102273.66;;;-6.28;83.03
48204;BME280;33994;50.998;5.864;2022-12-18T01:05:13;102273.94;;;-6.35;82.86
48204;BME280;33994;50.998;5.864;2022-12-18T01:08:16;102275.50;;;-6.37;82.84
48204;BME280;33994;50.998;5.864;2022-12-18T01:11:20;102272.72;;;-6.40;83.10
48204;BME280;33994;50.998;5.864;2022-12-18T01:14:23;102253.00;;;-6.43;83.50
48204;BME280;33994;50.998;5.864;2022-12-18T01:17:26;102255.19;;;-6.47;82.99
48204;BME280;33994;50.998;5.864;2022-12-18T01:20:31;102265.81;;;-6.53;83.33
48204;BME280;33994;50.998;5.864;2022-12-18T01:23:34;102265.56;;;-6.56;83.16
48204;BME280;33994;50.998;5.864;2022-12-18T01:26:38;102262.16;;;-6.56;82.90
48204;BME280;33994;50.998;5.864;2022-12-18T01:29:40;102267.34;;;-6.55;83.37
48204;BME280;33994;50.998;5.864;2022-12-18T01:32:44;102268.91;;;-6.57;82.90
48204;BME280;33994;50.998;5.864;2022-12-18T01:35:48;102283.25;;;-6.57;83.00
48204;BME280;33994;50.998;5.864;2022-12-18T01:38:51;102285.81;;;-6.57;82.88
48204;BME280;33994;50.998;5.864;2022-12-18T01:41:54;102284.81;;;-6.59;82.85
48204;BME280;33994;50.998;5.864;2022-12-18T01:45:04;102282.81;;;-6.64;82.76
48204;BME280;33994;50.998;5.864;2022-12-18T01:48:08;102270.59;;;-6.68;82.97
48204;BME280;33994;50.998;5.864;2022-12-18T01:51:13;102268.94;;;-6.67;82.98
48204;BME280;33994;50.998;5.864;2022-12-18T01:54:17;102270.59;;;-6.68;82.89
48204;BME280;33994;50.998;5.864;2022-12-18T01:57:20;102268.81;;;-6.69;82.57
48204;BME280;33994;50.998;5.864;2022-12-18T02:00:24;102271.13;;;-6.72;82.97
48204;BME280;33994;50.998;5.864;2022-12-18T02:03:28;102265.03;;;-6.74;82.65
48204;BME280;33994;50.998;5.864;2022-12-18T02:06:36;102258.19;;;-6.75;82.48
48204;BME280;33994;50.998;5.864;2022-12-18T02:09:46;102253.72;;;-6.77;82.63
48204;BME280;33994;50.998;5.864;2022-12-18T02:12:54;102265.06;;;-6.84;82.24
48204;BME280;33994;50.998;5.864;2022-12-18T02:16:04;102267.16;;;-6.90;82.85
48204;BME280;33994;50.998;5.864;2022-12-18T02:19:26;102261.19;;;-6.91;82.63
48204;BME280;33994;50.998;5.864;2022-12-18T02:22:37;102252.69;;;-6.91;82.99
48204;BME280;33994;50.998;5.864;2022-12-18T02:26:12;102254.53;;;-6.89;82.56
48204;BME280;33994;50.998;5.864;2022-12-18T02:29:23;102253.44;;;-6.92;82.65
48204;BME280;33994;50.998;5.864;2022-12-18T02:32:29;102249.03;;;-6.95;82.74
48204;BME280;33994;50.998;5.864;2022-12-18T02:35:34;102254.13;;;-6.95;82.75
48204;BME280;33994;50.998;5.864;2022-12-18T02:38:39;102249.78;;;-6.96;82.87
48204;BME280;33994;50.998;5.864;2022-12-18T02:41:44;102254.13;;;-6.95;83.00
48204;BME280;33994;50.998;5.864;2022-12-18T02:44:49;102239.75;;;-6.94;82.59
48204;BME280;33994;50.998;5.864;2022-12-18T02:47:52;102248.16;;;-6.95;82.73
48204;BME280;33994;50.998;5.864;2022-12-18T02:51:00;102244.81;;;-6.94;82.81
48204;BME280;33994;50.998;5.864;2022-12-18T02:54:10;102231.97;;;-6.96;82.34
48204;BME280;33994;50.998;5.864;2022-12-18T02:57:21;102222.72;;;-6.95;82.74
48204;BME280;33994;50.998;5.864;2022-12-18T03:00:31;102226.25;;;-6.93;82.67
48204;BME280;33994;50.998;5.864;2022-12-18T03:03:40;102221.16;;;-6.93;82.27
48204;BME280;33994;50.998;5.864;2022-12-18T03:06:49;102221.16;;;-6.93;82.38
48204;BME280;33994;50.998;5.864;2022-12-18T03:09:53;102211.06;;;-6.92;82.44
48204;BME280;33994;50.998;5.864;2022-12-18T03:13:02;102218.69;;;-6.92;82.39
48204;BME280;33994;50.998;5.864;2022-12-18T03:16:10;102217.84;;;-6.92;82.26
48204;BME280;33994;50.998;5.864;2022-12-18T03:19:16;102209.22;;;-6.94;82.11
48204;BME280;33994;50.998;5.864;2022-12-18T03:22:22;102210.75;;;-6.96;81.92
48204;BME280;33994;50.998;5.864;2022-12-18T03:25:27;102205.66;;;-6.96;82.10
48204;BME280;33994;50.998;5.864;2022-12-18T03:28:37;102199.56;;;-6.98;82.04
48204;BME280;33994;50.998;5.864;2022-12-18T03:31:43;102184.19;;;-7.00;82.17
48204;BME280;33994;50.998;5.864;2022-12-18T03:34:51;102197.91;;;-6.98;82.00
48204;BME280;33994;50.998;5.864;2022-12-18T03:37:56;102197.13;;;-6.97;81.83
48204;BME280;33994;50.998;5.864;2022-12-18T03:41:04;102198.91;;;-6.96;81.97
48204;BME280;33994;50.998;5.864;2022-12-18T03:44:14;102203.88;;;-6.97;82.16
48204;BME280;33994;50.998;5.864;2022-12-18T03:47:24;102198.78;;;-6.97;81.68
48204;BME280;33994;50.998;5.864;2022-12-18T03:50:37;102198.69;;;-6.99;81.77
48204;BME280;33994;50.998;5.864;2022-12-18T03:53:47;102197.13;;;-6.97;82.10
48204;BME280;33994;50.998;5.864;2022-12-18T03:56:56;102185.06;;;-6.99;82.20
48204;BME280;33994;50.998;5.864;2022-12-18T04:00:05;102190.38;;;-6.96;82.10
48204;BME280;33994;50.998;5.864;2022-12-18T04:03:12;102186.09;;;-6.97;82.05
48204;BME280;33994;50.998;5.864;2022-12-18T04:06:17;102195.91;;;-7.02;82.40
48204;BME280;33994;50.998;5.864;2022-12-18T04:09:20;102190.16;;;-6.99;82.51
48204;BME280;33994;50.998;5.864;2022-12-18T04:12:24;102184.06;;;-7.01;82.34
48204;BME280;33994;50.998;5.864;2022-12-18T04:15:29;102179.75;;;-7.02;82.67
48204;BME280;33994;50.998;5.864;2022-12-18T04:18:32;102175.56;;;-7.02;82.70
48204;BME280;33994;50.998;5.864;2022-12-18T04:21:35;102175.66;;;-7.00;82.81
48204;BME280;33994;50.998;5.864;2022-12-18T04:24:38;102171.34;;;-7.01;83.12
48204;BME280;33994;50.998;5.864;2022-12-18T04:27:41;102175.66;;;-7.00;82.94
48204;BME280;33994;50.998;5.864;2022-12-18T04:30:46;102166.50;;;-6.98;83.34
48204;BME280;33994;50.998;5.864;2022-12-18T04:33:49;102164.06;;;-6.97;83.19
48204;BME280;33994;50.998;5.864;2022-12-18T04:36:52;102151.50;;;-6.95;82.99
48204;BME280;33994;50.998;5.864;2022-12-18T04:39:56;102161.97;;;-6.91;82.97
48204;BME280;33994;50.998;5.864;2022-12-18T04:42:59;102163.84;;;-6.88;83.15
48204;BME280;33994;50.998;5.864;2022-12-18T04:46:05;102171.84;;;-6.83;82.89
48204;BME280;33994;50.998;5.864;2022-12-18T04:49:08;102184.69;;;-6.82;83.13
48204;BME280;33994;50.998;5.864;2022-12-18T04:52:11;102189.88;;;-6.80;82.66
48204;BME280;33994;50.998;5.864;2022-12-18T04:55:14;102195.09;;;-6.79;82.91
48204;BME280;33994;50.998;5.864;2022-12-18T04:58:17;102181.59;;;-6.78;82.99
48204;BME280;33994;50.998;5.864;2022-12-18T05:01:22;102191.38;;;-6.72;82.94
48204;BME280;33994;50.998;5.864;2022-12-18T05:04:25;102189.81;;;-6.70;82.95
48204;BME280;33994;50.998;5.864;2022-12-18T05:07:29;102192.47;;;-6.69;82.53
48204;BME280;33994;50.998;5.864;2022-12-18T05:10:32;102194.91;;;-6.70;82.47
48204;BME280;33994;50.998;5.864;2022-12-18T05:13:35;102195.56;;;-6.73;82.66
48204;BME280;33994;50.998;5.864;2022-12-18T05:16:39;102195.34;;;-6.76;82.64
48204;BME280;33994;50.998;5.864;2022-12-18T05:19:42;102189.72;;;-6.72;82.94
48204;BME280;33994;50.998;5.864;2022-12-18T05:22:45;102188.84;;;-6.72;82.70
48204;BME280;33994;50.998;5.864;2022-12-18T05:25:50;102182.28;;;-6.69;82.40
48204;BME280;33994;50.998;5.864;2022-12-18T05:28:53;102181.41;;;-6.69;82.60
48204;BME280;33994;50.998;5.864;2022-12-18T05:31:57;102191.72;;;-6.68;82.53
48204;BME280;33994;50.998;5.864;2022-12-18T05:35:01;102188.94;;;-6.71;82.46
48204;BME280;33994;50.998;5.864;2022-12-18T05:38:04;102187.91;;;-6.73;82.19
48204;BME280;33994;50.998;5.864;2022-12-18T05:41:07;102192.91;;;-6.74;81.91
48204;BME280;33994;50.998;5.864;2022-12-18T05:44:11;102190.13;;;-6.77;82.16
48204;BME280;33994;50.998;5.864;2022-12-18T05:47:15;102179.84;;;-6.79;82.39
48204;BME280;33994;50.998;5.864;2022-12-18T05:50:18;102186.59;;;-6.79;82.35
48204;BME280;33994;50.998;5.864;2022-12-18T05:53:21;102188.88;;;-6.82;82.33
48204;BME280;33994;50.998;5.864;2022-12-18T05:56:24;102181.13;;;-6.84;82.23
48204;BME280;33994;50.998;5.864;2022-12-18T05:59:27;102194.09;;;-6.81;82.24
48204;BME280;33994;50.998;5.864;2022-12-18T06:02:31;102189.13;;;-6.79;82.50
48204;BME280;33994;50.998;5.864;2022-12-18T06:05:35;102177.41;;;-6.77;82.36
48204;BME280;33994;50.998;5.864;2022-12-18T06:08:38;102187.72;;;-6.76;82.00
48204;BME280;33994;50.998;5.864;2022-12-18T06:11:41;102184.94;;;-6.79;82.34
48204;BME280;33994;50.998;5.864;2022-12-18T06:14:44;102178.94;;;-6.79;82.47
48204;BME280;33994;50.998;5.864;2022-12-18T06:17:48;102171.84;;;-6.83;82.01
48204;BME280;33994;50.998;5.864;2022-12-18T06:20:55;102176.94;;;-6.83;82.32
48204;BME280;33994;50.998;5.864;2022-12-18T06:24:00;102182.25;;;-6.80;82.25
48204;BME280;33994;50.998;5.864;2022-12-18T06:27:03;102185.91;;;-6.77;82.05
48204;BME280;33994;50.998;5.864;2022-12-18T06:30:07;102192.78;;;-6.76;81.76
48204;BME280;33994;50.998;5.864;2022-12-18T06:33:12;102196.09;;;-6.77;81.73
48204;BME280;33994;50.998;5.864;2022-12-18T06:36:15;102197.41;;;-6.82;81.71
48204;BME280;33994;50.998;5.864;2022-12-18T06:39:18;102205.91;;;-6.81;81.56
48204;BME280;33994;50.998;5.864;2022-12-18T06:42:21;102204.78;;;-6.85;81.64
48204;BME280;33994;50.998;5.864;2022-12-18T06:45:24;102199.84;;;-6.83;82.06
48204;BME280;33994;50.998;5.864;2022-12-18T06:48:29;102198.94;;;-6.84;81.72
48204;BME280;33994;50.998;5.864;2022-12-18T06:51:32;102186.22;;;-6.84;81.81
48204;BME280;33994;50.998;5.864;2022-12-18T06:54:35;102194.63;;;-6.85;81.91
48204;BME280;33994;50.998;5.864;2022-12-18T06:57:39;102189.78;;;-6.82;81.85
48204;BME280;33994;50.998;5.864;2022-12-18T07:00:42;102180.38;;;-6.83;81.79
48204;BME280;33994;50.998;5.864;2022-12-18T07:03:46;102182.03;;;-6.83;81.91
48204;BME280;33994;50.998;5.864;2022-12-18T07:06:49;102190.56;;;-6.83;81.51
48204;BME280;33994;50.998;5.864;2022-12-18T07:09:52;102186.44;;;-6.81;81.54
48204;BME280;33994;50.998;5.864;2022-12-18T07:12:55;102177.06;;;-6.82;81.41
48204;BME280;33994;50.998;5.864;2022-12-18T07:16:06;102164.09;;;-6.85;81.91
48204;BME280;33994;50.998;5.864;2022-12-18T07:19:11;102170.94;;;-6.84;81.79
48204;BME280;33994;50.998;5.864;2022-12-18T07:22:14;102178.56;;;-6.84;81.40
48204;BME280;33994;50.998;5.864;2022-12-18T07:25:17;102178.72;;;-6.82;81.67
48204;BME280;33994;50.998;5.864;2022-12-18T07:28:20;102158.47;;;-6.81;81.92
48204;BME280;33994;50.998;5.864;2022-12-18T07:31:24;102151.06;;;-6.78;82.00
48204;BME280;33994;50.998;5.864;2022-12-18T07:34:29;102142.66;;;-6.77;81.35
48204;BME280;33994;50.998;5.864;2022-12-18T07:37:32;102129.28;;;-6.74;81.64
48204;BME280;33994;50.998;5.864;2022-12-18T07:40:35;102120.13;;;-6.72;81.37
48204;BME280;33994;50.998;5.864;2022-12-18T07:43:38;102123.41;;;-6.73;81.78
48204;BME280;33994;50.998;5.864;2022-12-18T07:46:41;102114.38;;;-6.70;81.66
48204;BME280;33994;50.998;5.864;2022-12-18T07:49:46;102110.28;;;-6.68;81.81
48204;BME280;33994;50.998;5.864;2022-12-18T07:52:49;102097.03;;;-6.64;81.78
48204;BME280;33994;50.998;5.864;2022-12-18T07:55:55;102092.81;;;-6.63;81.76
48204;BME280;33994;50.998;5.864;2022-12-18T07:58:58;102096.25;;;-6.63;81.68
48204;BME280;33994;50.998;5.864;2022-12-18T08:02:01;102100.78;;;-6.58;81.79
48204;BME280;33994;50.998;5.864;2022-12-18T08:05:07;102099.25;;;-6.56;81.58
48204;BME280;33994;50.998;5.864;2022-12-18T08:08:10;102090.75;;;-6.57;81.88
48204;BME280;33994;50.998;5.864;2022-12-18T08:11:13;102088.28;;;-6.55;81.84
48204;BME280;33994;50.998;5.864;2022-12-18T08:14:16;102088.28;;;-6.55;82.08
48204;BME280;33994;50.998;5.864;2022-12-18T08:17:19;102079.22;;;-6.52;81.92
48204;BME280;33994;50.998;5.864;2022-12-18T08:20:23;102090.28;;;-6.51;82.01
48204;BME280;33994;50.998;5.864;2022-12-18T08:23:26;102090.94;;;-6.54;82.20
48204;BME280;33994;50.998;5.864;2022-12-18T08:26:30;102101.47;;;-6.49;81.97
48204;BME280;33994;50.998;5.864;2022-12-18T08:29:33;102092.53;;;-6.44;81.79
48204;BME280;33994;50.998;5.864;2022-12-18T08:32:36;102094.28;;;-6.43;82.08
48204;BME280;33994;50.998;5.864;2022-12-18T08:35:40;102091.97;;;-6.40;82.25
48204;BME280;33994;50.998;5.864;2022-12-18T08:38:43;102100.72;;;-6.36;81.99
48204;BME280;33994;50.998;5.864;2022-12-18T08:41:46;102105.34;;;-6.31;81.65
48204;BME280;33994;50.998;5.864;2022-12-18T08:44:49;102108.91;;;-6.29;82.04
48204;BME280;33994;50.998;5.864;2022-12-18T08:47:52;102121.44;;;-6.20;81.85
48204;BME280;33994;50.998;5.864;2022-12-18T08:50:57;102111.47;;;-6.17;82.23
48204;BME280;33994;50.998;5.864;2022-12-18T08:54:01;102105.94;;;-6.11;81.98
48204;BME280;33994;50.998;5.864;2022-12-18T08:57:05;102084.25;;;-6.06;81.67
48204;BME280;33994;50.998;5.864;2022-12-18T09:00:08;102077.03;;;-6.00;81.51
48204;BME280;33994;50.998;5.864;2022-12-18T09:03:12;102061.19;;;-5.96;81.62
48204;BME280;33994;50.998;5.864;2022-12-18T09:06:19;102066.94;;;-5.87;81.80
48204;BME280;33994;50.998;5.864;2022-12-18T09:09:22;102066.38;;;-5.83;81.70
48204;BME280;33994;50.998;5.864;2022-12-18T09:12:25;102061.50;;;-5.80;81.76
48204;BME280;33994;50.998;5.864;2022-12-18T09:15:29;102065.47;;;-5.72;81.56
48204;BME280;33994;50.998;5.864;2022-12-18T09:18:32;102050.81;;;-5.62;81.39
48204;BME280;33994;50.998;5.864;2022-12-18T09:21:37;102064.97;;;-5.54;81.57
48204;BME280;33994;50.998;5.864;2022-12-18T09:24:39;102066.78;;;-5.53;81.76
48204;BME280;33994;50.998;5.864;2022-12-18T09:27:42;102066.53;;;-5.45;81.86
48204;BME280;33994;50.998;5.864;2022-12-18T09:30:48;102064.72;;;-5.34;81.72
48204;BME280;33994;50.998;5.864;2022-12-18T09:33:51;102063.56;;;-5.26;81.30
48204;BME280;33994;50.998;5.864;2022-12-18T09:36:55;102054.00;;;-5.17;81.16
48204;BME280;33994;50.998;5.864;2022-12-18T09:39:58;102059.72;;;-5.07;80.72
48204;BME280;33994;50.998;5.864;2022-12-18T09:43:04;102044.81;;;-5.01;80.73
48204;BME280;33994;50.998;5.864;2022-12-18T09:46:11;102055.25;;;-4.98;80.60
48204;BME280;33994;50.998;5.864;2022-12-18T09:49:20;102047.22;;;-4.91;80.49
48204;BME280;33994;50.998;5.864;2022-12-18T09:52:32;102046.94;;;-4.82;80.09
48204;BME280;33994;50.998;5.864;2022-12-18T09:55:37;102042.47;;;-4.73;80.57
48204;BME280;33994;50.998;5.864;2022-12-18T09:58:46;102039.41;;;-4.68;80.39
48204;BME280;33994;50.998;5.864;2022-12-18T10:01:51;102038.16;;;-4.61;79.88
48204;BME280;33994;50.998;5.864;2022-12-18T10:05:05;102041.31;;;-4.52;79.85
48204;BME280;33994;50.998;5.864;2022-12-18T10:08:13;102041.72;;;-4.46;80.11
48204;BME280;33994;50.998;5.864;2022-12-18T10:11:28;102031.91;;;-4.39;80.11
48204;BME280;33994;50.998;5.864;2022-12-18T10:14:40;102034.84;;;-4.33;79.77
48204;BME280;33994;50.998;5.864;2022-12-18T10:17:50;102044.66;;;-4.26;80.10
48204;BME280;33994;50.998;5.864;2022-12-18T10:20:56;102044.16;;;-4.21;79.80
48204;BME280;33994;50.998;5.864;2022-12-18T10:24:14;102028.28;;;-4.16;79.67
48204;BME280;33994;50.998;5.864;2022-12-18T10:27:23;102027.75;;;-4.11;79.56
48204;BME280;33994;50.998;5.864;2022-12-18T10:30:27;102029.72;;;-4.07;79.51
48204;BME280;33994;50.998;5.864;2022-12-18T10:33:33;102025.91;;;-4.00;79.54
48204;BME280;33994;50.998;5.864;2022-12-18T10:36:36;102020.97;;;-3.97;79.61
48204;BME280;33994;50.998;5.864;2022-12-18T10:39:40;102020.47;;;-3.91;79.61
48204;BME280;33994;50.998;5.864;2022-12-18T10:42:43;102014.88;;;-3.86;79.82
48204;BME280;33994;50.998;5.864;2022-12-18T10:46:02;102007.69;;;-3.78;79.55
48204;BME280;33994;50.998;5.864;2022-12-18T10:49:05;102013.25;;;-3.71;79.45
48204;BME280;33994;50.998;5.864;2022-12-18T10:52:21;101998.19;;;-3.66;79.30
48204;BME280;33994;50.998;5.864;2022-12-18T10:55:32;101996.00;;;-3.60;79.44
48204;BME280;33994;50.998;5.864;2022-12-18T10:58:37;101984.28;;;-3.56;79.49
48204;BME280;33994;50.998;5.864;2022-12-18T11:01:49;101982.91;;;-3.51;79.25
48204;BME280;33994;50.998;5.864;2022-12-18T11:04:53;101980.69;;;-3.45;79.13
48204;BME280;33994;50.998;5.864;2022-12-18T11:07:57;101976.75;;;-3.40;78.94
48204;BME280;33994;50.998;5.864;2022-12-18T11:11:02;101966.00;;;-3.34;78.84
48204;BME280;33994;50.998;5.864;2022-12-18T11:14:15;101962.81;;;-3.30;79.14
48204;BME280;33994;50.998;5.864;2022-12-18T11:17:23;101965.75;;;-3.24;79.12
48204;BME280;33994;50.998;5.864;2022-12-18T11:20:32;101970.06;;;-3.23;79.19
48204;BME280;33994;50.998;5.864;2022-12-18T11:23:46;101973.00;;;-3.17;79.02
48204;BME280;33994;50.998;5.864;2022-12-18T11:26:50;101967.47;;;-3.10;79.13
48204;BME280;33994;50.998;5.864;2022-12-18T11:30:07;101962.78;;;-3.02;78.97
48204;BME280;33994;50.998;5.864;2022-12-18T11:33:14;101949.38;;;-2.98;79.06
48204;BME280;33994;50.998;5.864;2022-12-18T11:36:20;101943.63;;;-2.94;78.92
48204;BME280;33994;50.998;5.864;2022-12-18T11:39:31;101944.78;;;-2.89;78.95
48204;BME280;33994;50.998;5.864;2022-12-18T11:42:44;101933.03;;;-2.85;78.85
48204;BME280;33994;50.998;5.864;2022-12-18T11:45:52;101936.72;;;-2.80;79.20
48204;BME280;33994;50.998;5.864;2022-12-18T11:48:58;101936.19;;;-2.75;78.99
48204;BME280;33994;50.998;5.864;2022-12-18T11:52:12;101927.91;;;-2.70;79.03
48204;BME280;33994;50.998;5.864;2022-12-18T11:55:24;101920.63;;;-2.63;78.95
48204;BME280;33994;50.998;5.864;2022-12-18T11:58:42;101916.53;;;-2.44;79.19
48204;BME280;33994;50.998;5.864;2022-12-18T12:01:50;101918.72;;;-2.36;78.64
48204;BME280;33994;50.998;5.864;2022-12-18T12:05:12;101916.97;;;-2.37;78.37
48204;BME280;33994;50.998;5.864;2022-12-18T12:08:27;101899.97;;;-2.35;78.46
48204;BME280;33994;50.998;5.864;2022-12-18T12:11:43;101898.41;;;-2.33;78.59
48204;BME280;33994;50.998;5.864;2022-12-18T12:15:01;101888.16;;;-2.33;78.37
48204;BME280;33994;50.998;5.864;2022-12-18T12:18:20;101893.44;;;-2.30;78.53
48204;BME280;33994;50.998;5.864;2022-12-18T12:21:33;101876.53;;;-2.26;78.57
48204;BME280;33994;50.998;5.864;2022-12-18T12:24:46;101876.88;;;-2.20;78.97
48204;BME280;33994;50.998;5.864;2022-12-18T12:28:02;101875.41;;;-2.15;78.75
48204;BME280;33994;50.998;5.864;2022-12-18T12:31:17;101867.72;;;-2.15;78.66
48204;BME280;33994;50.998;5.864;2022-12-18T12:34:26;101863.56;;;-2.13;78.82
48204;BME280;33994;50.998;5.864;2022-12-18T12:37:38;101855.97;;;-2.11;78.44
48204;BME280;33994;50.998;5.864;2022-12-18T12:40:48;101844.94;;;-2.10;78.31
48204;BME280;33994;50.998;5.864;2022-12-18T12:43:55;101842.50;;;-2.07;78.52
48204;BME280;33994;50.998;5.864;2022-12-18T12:47:11;101834.97;;;-2.04;78.68
48204;BME280;33994;50.998;5.864;2022-12-18T12:50:18;101828.25;;;-2.02;78.45
48204;BME280;33994;50.998;5.864;2022-12-18T12:53:27;101822.47;;;-1.98;78.53
48204;BME280;33994;50.998;5.864;2022-12-18T12:56:41;101820.97;;;-1.94;78.57
48204;BME280;33994;50.998;5.864;2022-12-18T12:59:51;101830.56;;;-1.90;78.27
48204;BME280;33994;50.998;5.864;2022-12-18T13:03:14;101824.69;;;-1.88;78.17
48204;BME280;33994;50.998;5.864;2022-12-18T13:06:30;101821.53;;;-1.84;77.83
48204;BME280;33994;50.998;5.864;2022-12-18T13:09:34;101813.19;;;-1.80;78.01
48204;BME280;33994;50.998;5.864;2022-12-18T13:12:58;101812.53;;;-1.76;77.92
48204;BME280;33994;50.998;5.864;2022-12-18T13:16:05;101815.31;;;-1.71;78.10
48204;BME280;33994;50.998;5.864;2022-12-18T13:19:21;101805.28;;;-1.66;77.88
48204;BME280;33994;50.998;5.864;2022-12-18T13:22:28;101800.31;;;-1.63;78.10
48204;BME280;33994;50.998;5.864;2022-12-18T13:25:35;101798.84;;;-1.58;77.78
48204;BME280;33994;50.998;5.864;2022-12-18T13:28:53;101792.13;;;-1.56;77.68
48204;BME280;33994;50.998;5.864;2022-12-18T13:32:00;101788.91;;;-1.52;77.55
48204;BME280;33994;50.998;5.864;2022-12-18T13:35:38;101794.97;;;-1.50;77.43
48204;BME280;33994;50.998;5.864;2022-12-18T13:38:43;101785.53;;;-1.51;77.49
48204;BME280;33994;50.998;5.864;2022-12-18T13:41:48;101781.44;;;-1.47;77.46
48204;BME280;33994;50.998;5.864;2022-12-18T13:44:52;101772.03;;;-1.47;77.52
48204;BME280;33994;50.998;5.864;2022-12-18T13:47:54;101779.72;;;-1.47;77.33
48204;BME280;33994;50.998;5.864;2022-12-18T13:51:02;101777.25;;;-1.45;77.33
48204;BME280;33994;50.998;5.864;2022-12-18T13:54:17;101783.28;;;-1.45;77.39
48204;BME280;33994;50.998;5.864;2022-12-18T13:57:27;101780.84;;;-1.42;77.00
48204;BME280;33994;50.998;5.864;2022-12-18T14:00:30;101776.66;;;-1.40;77.30
48204;BME280;33994;50.998;5.864;2022-12-18T14:03:34;101776.16;;;-1.33;77.27
48204;BME280;33994;50.998;5.864;2022-12-18T14:06:38;101770.22;;;-1.32;76.69
48204;BME280;33994;50.998;5.864;2022-12-18T14:09:43;101762.66;;;-1.29;76.92
48204;BME280;33994;50.998;5.864;2022-12-18T14:12:48;101765.38;;;-1.26;77.09
48204;BME280;33994;50.998;5.864;2022-12-18T14:15:53;101770.69;;;-1.22;76.56
48204;BME280;33994;50.998;5.864;2022-12-18T14:18:57;101775.94;;;-1.19;76.50
48204;BME280;33994;50.998;5.864;2022-12-18T14:22:01;101788.91;;;-1.16;76.34
48204;BME280;33994;50.998;5.864;2022-12-18T14:25:13;101790.63;;;-1.17;76.46
48204;BME280;33994;50.998;5.864;2022-12-18T14:28:17;101781.31;;;-1.15;76.47
48204;BME280;33994;50.998;5.864;2022-12-18T14:31:22;101777.06;;;-1.14;76.40
48204;BME280;33994;50.998;5.864;2022-12-18T14:34:26;101786.56;;;-1.12;76.33
48204;BME280;33994;50.998;5.864;2022-12-18T14:37:31;101788.09;;;-1.15;76.50
48204;BME280;33994;50.998;5.864;2022-12-18T14:40:34;101776.97;;;-1.16;76.08
48204;BME280;33994;50.998;5.864;2022-12-18T14:43:38;101787.31;;;-1.14;76.18
48204;BME280;33994;50.998;5.864;2022-12-18T14:46:42;101788.19;;;-1.14;76.67
48204;BME280;33994;50.998;5.864;2022-12-18T14:49:46;101787.31;;;-1.14;76.42
48204;BME280;33994;50.998;5.864;2022-12-18T14:52:50;101785.53;;;-1.15;76.45
48204;BME280;33994;50.998;5.864;2022-12-18T14:55:53;101783.94;;;-1.13;76.40
48204;BME280;33994;50.998;5.864;2022-12-18T14:58:58;101778.81;;;-1.13;76.48
48204;BME280;33994;50.998;5.864;2022-12-18T15:02:04;101787.38;;;-1.13;76.27
48204;BME280;33994;50.998;5.864;2022-12-18T15:05:19;101784.81;;;-1.13;76.24
48204;BME280;33994;50.998;5.864;2022-12-18T15:08:35;101778.00;;;-1.12;76.53
48204;BME280;33994;50.998;5.864;2022-12-18T15:11:48;101770.13;;;-1.15;76.25
48204;BME280;33994;50.998;5.864;2022-12-18T15:14:51;101781.31;;;-1.15;77.04
48204;BME280;33994;50.998;5.864;2022-12-18T15:17:57;101782.03;;;-1.17;76.80
48204;BME280;33994;50.998;5.864;2022-12-18T15:21:07;101772.63;;;-1.17;76.72
48204;BME280;33994;50.998;5.864;2022-12-18T15:24:18;101765.66;;;-1.19;77.05
48204;BME280;33994;50.998;5.864;2022-12-18T15:27:30;101766.47;;;-1.20;76.72
48204;BME280;33994;50.998;5.864;2022-12-18T15:30:34;101772.59;;;-1.18;77.18
48204;BME280;33994;50.998;5.864;2022-12-18T15:33:39;101772.59;;;-1.18;77.07
48204;BME280;33994;50.998;5.864;2022-12-18T15:36:42;101769.88;;;-1.21;76.82
48204;BME280;33994;50.998;5.864;2022-12-18T15:39:46;101759.50;;;-1.23;76.97
48204;BME280;33994;50.998;5.864;2022-12-18T15:42:53;101759.50;;;-1.23;77.25
48204;BME280;33994;50.998;5.864;2022-12-18T15:45:57;101758.56;;;-1.25;77.19
48204;BME280;33994;50.998;5.864;2022-12-18T15:49:00;101751.75;;;-1.25;77.64
48204;BME280;33994;50.998;5.864;2022-12-18T15:52:03;101743.88;;;-1.28;77.65
48204;BME280;33994;50.998;5.864;2022-12-18T15:55:10;101746.44;;;-1.28;77.94
48204;BME280;33994;50.998;5.864;2022-12-18T15:58:14;101745.50;;;-1.30;77.77
48204;BME280;33994;50.998;5.864;2022-12-18T16:01:18;101751.53;;;-1.29;77.73
48204;BME280;33994;50.998;5.864;2022-12-18T16:04:22;101748.97;;;-1.29;78.04
48204;BME280;33994;50.998;5.864;2022-12-18T16:07:25;101748.09;;;-1.30;78.08
48204;BME280;33994;50.998;5.864;2022-12-18T16:10:30;101754.91;;;-1.30;77.82
48204;BME280;33994;50.998;5.864;2022-12-18T16:13:33;101743.69;;;-1.32;78.04